KBOI

Boise Airport

Airport
ICAO code
KBOI
IATA Code
BOI
Summary
ICAO Region
NAM
ICAO Territory
Location

Ada County, Idaho

Serving
Boise
Elevation
2871 ft
Coordinates
43° 33' 52" N , 116° 13' 25" W
KCC
Airport CFIT
Altimeter Temperature Error Correction
Airport LOS
Parallel Runway Operation
Metar
KBOI 151653Z 30015G23KT 10SM CLR 19/02 A2998 RMK AO2 SLP129 T01890017

Description

Boise Airport, also known as Boise Air Terminal or Gowen Field, is a joint civil-military, commercial and general aviation airport located 3 nm south of downtown Boise in Ada County, Idaho, USA.

Airport map

Aerial View

SKYbrary Partners:

Safety knowledge contributed by: